sensor_id;sensor_type;location;lat;lon;timestamp;temperature;humidity
674;DHT22;319;48.764;9.174;2023-06-01T00:00:55;18.00;68.40
674;DHT22;319;48.764;9.174;2023-06-01T00:03:22;18.00;68.70
674;DHT22;319;48.764;9.174;2023-06-01T00:05:51;18.00;68.80
674;DHT22;319;48.764;9.174;2023-06-01T00:08:18;18.00;69.10
674;DHT22;319;48.764;9.174;2023-06-01T00:10:45;17.90;69.50
674;DHT22;319;48.764;9.174;2023-06-01T00:13:12;17.70;69.90
674;DHT22;319;48.764;9.174;2023-06-01T00:15:39;17.70;70.50
674;DHT22;319;48.764;9.174;2023-06-01T00:18:06;17.70;70.60
674;DHT22;319;48.764;9.174;2023-06-01T00:20:34;17.70;70.60
674;DHT22;319;48.764;9.174;2023-06-01T00:23:02;17.60;70.50
674;DHT22;319;48.764;9.174;2023-06-01T00:25:29;17.60;70.80
674;DHT22;319;48.764;9.174;2023-06-01T00:27:56;17.50;71.40
674;DHT22;319;48.764;9.174;2023-06-01T00:30:23;17.50;71.50
674;DHT22;319;48.764;9.174;2023-06-01T00:32:50;17.50;71.90
674;DHT22;319;48.764;9.174;2023-06-01T00:35:17;17.50;72.20
674;DHT22;319;48.764;9.174;2023-06-01T00:37:43;17.50;72.30
674;DHT22;319;48.764;9.174;2023-06-01T00:40:12;17.50;72.50
674;DHT22;319;48.764;9.174;2023-06-01T00:42:39;17.50;73.00
674;DHT22;319;48.764;9.174;2023-06-01T00:45:06;17.40;73.40
674;DHT22;319;48.764;9.174;2023-06-01T00:47:39;17.30;73.60
674;DHT22;319;48.764;9.174;2023-06-01T00:50:07;17.20;74.00
674;DHT22;319;48.764;9.174;2023-06-01T00:52:36;17.20;74.50
674;DHT22;319;48.764;9.174;2023-06-01T00:55:04;17.30;74.50
674;DHT22;319;48.764;9.174;2023-06-01T00:57:33;17.20;74.90
674;DHT22;319;48.764;9.174;2023-06-01T01:00:02;17.20;74.70
674;DHT22;319;48.764;9.174;2023-06-01T01:02:36;17.30;75.10
674;DHT22;319;48.764;9.174;2023-06-01T01:05:04;17.30;75.90
674;DHT22;319;48.764;9.174;2023-06-01T01:07:42;17.30;75.40
674;DHT22;319;48.764;9.174;2023-06-01T01:10:20;17.20;75.70
674;DHT22;319;48.764;9.174;2023-06-01T01:12:54;17.20;76.00
674;DHT22;319;48.764;9.174;2023-06-01T01:15:28;17.10;76.30
674;DHT22;319;48.764;9.174;2023-06-01T01:18:02;17.00;76.60
674;DHT22;319;48.764;9.174;2023-06-01T01:20:35;17.00;76.90
674;DHT22;319;48.764;9.174;2023-06-01T01:23:12;16.90;77.00
674;DHT22;319;48.764;9.174;2023-06-01T01:26:09;16.90;77.10
674;DHT22;319;48.764;9.174;2023-06-01T01:28:46;16.90;77.00
674;DHT22;319;48.764;9.174;2023-06-01T01:31:16;16.80;77.10
674;DHT22;319;48.764;9.174;2023-06-01T01:33:44;16.80;77.50
674;DHT22;319;48.764;9.174;2023-06-01T01:36:12;16.80;77.80
674;DHT22;319;48.764;9.174;2023-06-01T01:38:39;16.70;78.00
674;DHT22;319;48.764;9.174;2023-06-01T01:41:06;16.70;78.20
674;DHT22;319;48.764;9.174;2023-06-01T01:43:33;16.70;78.50
674;DHT22;319;48.764;9.174;2023-06-01T01:46:16;16.70;79.00
674;DHT22;319;48.764;9.174;2023-06-01T01:48:50;16.70;79.30
674;DHT22;319;48.764;9.174;2023-06-01T01:51:22;16.70;79.50
674;DHT22;319;48.764;9.174;2023-06-01T01:53:52;16.70;79.80
674;DHT22;319;48.764;9.174;2023-06-01T01:56:19;16.60;79.80
674;DHT22;319;48.764;9.174;2023-06-01T01:58:48;16.60;79.90
674;DHT22;319;48.764;9.174;2023-06-01T02:01:17;16.60;80.10
674;DHT22;319;48.764;9.174;2023-06-01T02:03:45;16.60;80.30
674;DHT22;319;48.764;9.174;2023-06-01T02:06:12;16.60;80.60
674;DHT22;319;48.764;9.174;2023-06-01T02:08:39;16.50;80.50
674;DHT22;319;48.764;9.174;2023-06-01T02:11:06;16.50;80.60
674;DHT22;319;48.764;9.174;2023-06-01T02:13:32;16.50;80.90
674;DHT22;319;48.764;9.174;2023-06-01T02:15:59;16.50;81.10
674;DHT22;319;48.764;9.174;2023-06-01T02:18:28;16.40;81.50
674;DHT22;319;48.764;9.174;2023-06-01T02:20:55;16.30;81.90
674;DHT22;319;48.764;9.174;2023-06-01T02:23:22;16.30;82.50
674;DHT22;319;48.764;9.174;2023-06-01T02:25:49;16.20;82.80
674;DHT22;319;48.764;9.174;2023-06-01T02:28:17;16.20;83.20
674;DHT22;319;48.764;9.174;2023-06-01T02:30:44;16.20;83.60
674;DHT22;319;48.764;9.174;2023-06-01T02:33:11;16.20;83.70
674;DHT22;319;48.764;9.174;2023-06-01T02:35:39;16.10;83.90
674;DHT22;319;48.764;9.174;2023-06-01T02:38:06;16.20;84.10
674;DHT22;319;48.764;9.174;2023-06-01T02:40:33;16.10;84.90
674;DHT22;319;48.764;9.174;2023-06-01T02:43:00;16.10;84.50
674;DHT22;319;48.764;9.174;2023-06-01T02:45:27;16.10;84.70
674;DHT22;319;48.764;9.174;2023-06-01T02:47:54;16.00;85.10
674;DHT22;319;48.764;9.174;2023-06-01T02:50:21;16.00;85.50
674;DHT22;319;48.764;9.174;2023-06-01T02:52:49;16.00;85.70
674;DHT22;319;48.764;9.174;2023-06-01T02:55:16;16.00;86.10
674;DHT22;319;48.764;9.174;2023-06-01T02:57:43;16.00;86.50
674;DHT22;319;48.764;9.174;2023-06-01T03:00:10;15.90;86.70
674;DHT22;319;48.764;9.174;2023-06-01T03:02:43;15.80;86.90
674;DHT22;319;48.764;9.174;2023-06-01T03:05:10;15.90;87.20
674;DHT22;319;48.764;9.174;2023-06-01T03:07:40;15.90;88.00
674;DHT22;319;48.764;9.174;2023-06-01T03:10:09;15.90;87.40
674;DHT22;319;48.764;9.174;2023-06-01T03:12:36;15.90;87.40
674;DHT22;319;48.764;9.174;2023-06-01T03:15:03;15.80;87.50
674;DHT22;319;48.764;9.174;2023-06-01T03:17:31;15.80;87.80
674;DHT22;319;48.764;9.174;2023-06-01T03:19:58;15.80;87.90
674;DHT22;319;48.764;9.174;2023-06-01T03:22:25;15.70;88.10
674;DHT22;319;48.764;9.174;2023-06-01T03:24:52;15.60;88.50
674;DHT22;319;48.764;9.174;2023-06-01T03:27:21;15.60;88.70
674;DHT22;319;48.764;9.174;2023-06-01T03:29:48;15.60;88.90
674;DHT22;319;48.764;9.174;2023-06-01T03:32:15;15.70;89.00
674;DHT22;319;48.764;9.174;2023-06-01T03:34:42;15.70;88.90
674;DHT22;319;48.764;9.174;2023-06-01T03:37:09;15.60;89.10
674;DHT22;319;48.764;9.174;2023-06-01T03:39:36;15.60;89.20
674;DHT22;319;48.764;9.174;2023-06-01T03:42:05;15.60;89.20
674;DHT22;319;48.764;9.174;2023-06-01T03:44:33;15.60;89.20
674;DHT22;319;48.764;9.174;2023-06-01T03:47:00;15.60;89.50
674;DHT22;319;48.764;9.174;2023-06-01T03:49:28;15.60;89.60
674;DHT22;319;48.764;9.174;2023-06-01T03:51:55;15.60;89.50
674;DHT22;319;48.764;9.174;2023-06-01T03:54:21;15.70;89.70
674;DHT22;319;48.764;9.174;2023-06-01T03:56:48;15.70;89.80
674;DHT22;319;48.764;9.174;2023-06-01T03:59:15;15.70;89.90
674;DHT22;319;48.764;9.174;2023-06-01T04:01:44;15.70;90.00
674;DHT22;319;48.764;9.174;2023-06-01T04:04:13;15.70;90.10
674;DHT22;319;48.764;9.174;2023-06-01T04:06:42;15.60;90.20
674;DHT22;319;48.764;9.174;2023-06-01T04:09:11;15.60;90.20
674;DHT22;319;48.764;9.174;2023-06-01T04:11:39;15.70;90.20
674;DHT22;319;48.764;9.174;2023-06-01T04:14:05;15.70;90.10
674;DHT22;319;48.764;9.174;2023-06-01T04:16:33;15.70;90.20
674;DHT22;319;48.764;9.174;2023-06-01T04:19:01;15.80;90.20
674;DHT22;319;48.764;9.174;2023-06-01T04:21:28;15.90;90.10
674;DHT22;319;48.764;9.174;2023-06-01T04:23:55;15.90;89.70
674;DHT22;319;48.764;9.174;2023-06-01T04:26:22;15.90;89.70
674;DHT22;319;48.764;9.174;2023-06-01T04:28:50;16.00;89.70
674;DHT22;319;48.764;9.174;2023-06-01T04:31:17;16.00;89.20
674;DHT22;319;48.764;9.174;2023-06-01T04:33:44;16.10;89.00
674;DHT22;319;48.764;9.174;2023-06-01T04:36:13;16.20;88.70
674;DHT22;319;48.764;9.174;2023-06-01T04:38:46;16.50;88.80
674;DHT22;319;48.764;9.174;2023-06-01T04:41:16;17.10;87.60
674;DHT22;319;48.764;9.174;2023-06-01T04:43:45;18.00;84.90
674;DHT22;319;48.764;9.174;2023-06-01T04:46:17;19.00;81.00
674;DHT22;319;48.764;9.174;2023-06-01T04:48:44;19.70;77.20
674;DHT22;319;48.764;9.174;2023-06-01T04:51:14;20.00;75.20
674;DHT22;319;48.764;9.174;2023-06-01T04:53:45;20.10;73.70
674;DHT22;319;48.764;9.174;2023-06-01T04:56:16;19.80;73.30
674;DHT22;319;48.764;9.174;2023-06-01T04:58:44;19.60;73.70
674;DHT22;319;48.764;9.174;2023-06-01T05:01:13;19.30;74.70
674;DHT22;319;48.764;9.174;2023-06-01T05:03:41;19.00;75.50
674;DHT22;319;48.764;9.174;2023-06-01T05:06:09;18.90;76.10
674;DHT22;319;48.764;9.174;2023-06-01T05:08:39;18.70;76.60
674;DHT22;319;48.764;9.174;2023-06-01T05:11:06;18.60;77.20
674;DHT22;319;48.764;9.174;2023-06-01T05:13:34;18.50;77.70
674;DHT22;319;48.764;9.174;2023-06-01T05:16:01;18.50;78.10
674;DHT22;319;48.764;9.174;2023-06-01T05:18:28;18.50;78.50
674;DHT22;319;48.764;9.174;2023-06-01T05:20:54;18.40;78.90
674;DHT22;319;48.764;9.174;2023-06-01T05:23:21;18.50;79.40
674;DHT22;319;48.764;9.174;2023-06-01T05:25:50;18.50;79.10
674;DHT22;319;48.764;9.174;2023-06-01T05:28:17;18.60;79.00
674;DHT22;319;48.764;9.174;2023-06-01T05:30:45;18.60;78.90
674;DHT22;319;48.764;9.174;2023-06-01T05:33:12;18.70;78.70
674;DHT22;319;48.764;9.174;2023-06-01T05:35:38;18.80;78.70
674;DHT22;319;48.764;9.174;2023-06-01T05:38:05;18.90;79.10
674;DHT22;319;48.764;9.174;2023-06-01T05:40:32;19.00;78.90
674;DHT22;319;48.764;9.174;2023-06-01T05:43:00;19.00;79.10
674;DHT22;319;48.764;9.174;2023-06-01T05:45:27;19.10;78.20
674;DHT22;319;48.764;9.174;2023-06-01T05:47:55;19.20;77.80
674;DHT22;319;48.764;9.174;2023-06-01T05:50:21;19.30;76.30
674;DHT22;319;48.764;9.174;2023-06-01T05:52:48;19.40;76.10
674;DHT22;319;48.764;9.174;2023-06-01T05:55:15;19.50;75.80
674;DHT22;319;48.764;9.174;2023-06-01T05:57:42;19.60;74.90
674;DHT22;319;48.764;9.174;2023-06-01T06:00:13;19.80;74.20
674;DHT22;319;48.764;9.174;2023-06-01T06:02:41;20.00;71.90
674;DHT22;319;48.764;9.174;2023-06-01T06:05:08;20.30;70.70
674;DHT22;319;48.764;9.174;2023-06-01T06:07:36;20.70;69.00
674;DHT22;319;48.764;9.174;2023-06-01T06:10:03;21.20;67.20
674;DHT22;319;48.764;9.174;2023-06-01T06:12:30;22.00;65.70
674;DHT22;319;48.764;9.174;2023-06-01T06:14:57;23.10;63.20
674;DHT22;319;48.764;9.174;2023-06-01T06:17:25;24.50;59.30
674;DHT22;319;48.764;9.174;2023-06-01T06:19:52;26.20;56.10
674;DHT22;319;48.764;9.174;2023-06-01T06:22:19;27.80;52.20
674;DHT22;319;48.764;9.174;2023-06-01T06:24:46;29.30;47.90
674;DHT22;319;48.764;9.174;2023-06-01T06:27:14;30.10;45.70
674;DHT22;319;48.764;9.174;2023-06-01T06:29:41;31.50;42.60
674;DHT22;319;48.764;9.174;2023-06-01T06:32:09;32.10;40.50
674;DHT22;319;48.764;9.174;2023-06-01T06:34:37;33.10;38.80
674;DHT22;319;48.764;9.174;2023-06-01T06:37:04;33.80;35.80
674;DHT22;319;48.764;9.174;2023-06-01T06:39:32;34.30;34.80
674;DHT22;319;48.764;9.174;2023-06-01T06:41:59;34.10;33.50
674;DHT22;319;48.764;9.174;2023-06-01T06:44:26;34.10;34.20
674;DHT22;319;48.764;9.174;2023-06-01T06:46:53;34.70;32.90
674;DHT22;319;48.764;9.174;2023-06-01T06:49:20;35.40;32.20
674;DHT22;319;48.764;9.174;2023-06-01T06:51:49;35.80;31.30
674;DHT22;319;48.764;9.174;2023-06-01T06:54:16;35.90;31.10
674;DHT22;319;48.764;9.174;2023-06-01T06:56:42;36.10;30.70
674;DHT22;319;48.764;9.174;2023-06-01T06:59:10;36.00;30.20
674;DHT22;319;48.764;9.174;2023-06-01T07:01:37;36.20;30.40
674;DHT22;319;48.764;9.174;2023-06-01T07:04:06;36.30;29.60
674;DHT22;319;48.764;9.174;2023-06-01T07:06:34;36.20;29.60
674;DHT22;319;48.764;9.174;2023-06-01T07:09:02;36.30;29.60
674;DHT22;319;48.764;9.174;2023-06-01T07:11:31;36.00;30.00
674;DHT22;319;48.764;9.174;2023-06-01T07:13:58;35.50;30.00
674;DHT22;319;48.764;9.174;2023-06-01T07:16:25;35.40;30.60
674;DHT22;319;48.764;9.174;2023-06-01T07:18:52;35.60;30.10
674;DHT22;319;48.764;9.174;2023-06-01T07:21:19;35.60;29.90
674;DHT22;319;48.764;9.174;2023-06-01T07:23:46;34.90;30.80
674;DHT22;319;48.764;9.174;2023-06-01T07:26:14;34.90;31.30
674;DHT22;319;48.764;9.174;2023-06-01T07:28:41;35.20;30.30
674;DHT22;319;48.764;9.174;2023-06-01T07:31:08;34.70;30.90
674;DHT22;319;48.764;9.174;2023-06-01T07:33:35;34.80;30.90
674;DHT22;319;48.764;9.174;2023-06-01T07:36:03;35.00;30.90
674;DHT22;319;48.764;9.174;2023-06-01T07:38:30;35.30;29.90
674;DHT22;319;48.764;9.174;2023-06-01T07:40:58;35.40;30.20
674;DHT22;319;48.764;9.174;2023-06-01T07:43:27;35.80;29.90
674;DHT22;319;48.764;9.174;2023-06-01T07:45:54;36.40;29.90
674;DHT22;319;48.764;9.174;2023-06-01T07:48:21;36.40;29.20
674;DHT22;319;48.764;9.174;2023-06-01T07:50:47;36.20;29.40
674;DHT22;319;48.764;9.174;2023-06-01T07:53:16;35.90;29.50
674;DHT22;319;48.764;9.174;2023-06-01T07:55:43;35.80;29.60
674;DHT22;319;48.764;9.174;2023-06-01T07:58:10;36.00;29.40
674;DHT22;319;48.764;9.174;2023-06-01T08:00:38;35.60;29.50
674;DHT22;319;48.764;9.174;2023-06-01T08:03:05;35.40;30.00
674;DHT22;319;48.764;9.174;2023-06-01T08:05:34;35.00;30.10
674;DHT22;319;48.764;9.174;2023-06-01T08:08:01;34.80;30.60
674;DHT22;319;48.764;9.174;2023-06-01T08:10:28;34.60;30.40
674;DHT22;319;48.764;9.174;2023-06-01T08:12:56;34.50;30.90
674;DHT22;319;48.764;9.174;2023-06-01T08:15:26;34.50;31.40
674;DHT22;319;48.764;9.174;2023-06-01T08:17:55;34.40;31.50
674;DHT22;319;48.764;9.174;2023-06-01T08:20:22;34.20;31.30
674;DHT22;319;48.764;9.174;2023-06-01T08:22:51;34.20;31.80
674;DHT22;319;48.764;9.174;2023-06-01T08:25:19;34.40;31.60
674;DHT22;319;48.764;9.174;2023-06-01T08:27:46;35.10;30.60
674;DHT22;319;48.764;9.174;2023-06-01T08:30:13;35.40;30.00
674;DHT22;319;48.764;9.174;2023-06-01T08:32:40;35.60;29.90
674;DHT22;319;48.764;9.174;2023-06-01T08:35:08;35.50;29.60
674;DHT22;319;48.764;9.174;2023-06-01T08:40:13;34.60;30.30
674;DHT22;319;48.764;9.174;2023-06-01T08:42:45;34.70;30.10
674;DHT22;319;48.764;9.174;2023-06-01T08:45:17;35.30;30.00
674;DHT22;319;48.764;9.174;2023-06-01T08:47:45;35.60;29.60
674;DHT22;319;48.764;9.174;2023-06-01T08:50:16;35.70;29.70
674;DHT22;319;48.764;9.174;2023-06-01T08:52:46;35.60;29.70
674;DHT22;319;48.764;9.174;2023-06-01T08:55:13;35.20;29.70
674;DHT22;319;48.764;9.174;2023-06-01T08:57:40;35.10;30.50
674;DHT22;319;48.764;9.174;2023-06-01T09:00:08;35.40;30.00
674;DHT22;319;48.764;9.174;2023-06-01T09:02:35;35.40;30.30
674;DHT22;319;48.764;9.174;2023-06-01T09:05:02;35.00;30.00
674;DHT22;319;48.764;9.174;2023-06-01T09:07:31;34.60;30.90
674;DHT22;319;48.764;9.174;2023-06-01T09:09:59;34.80;30.80
674;DHT22;319;48.764;9.174;2023-06-01T09:12:28;34.60;30.60
674;DHT22;319;48.764;9.174;2023-06-01T09:15:16;35.00;30.40
674;DHT22;319;48.764;9.174;2023-06-01T09:17:45;34.60;30.40
674;DHT22;319;48.764;9.174;2023-06-01T09:20:14;34.70;30.50
674;DHT22;319;48.764;9.174;2023-06-01T09:22:44;34.40;30.80
674;DHT22;319;48.764;9.174;2023-06-01T09:25:14;33.20;31.60
674;DHT22;319;48.764;9.174;2023-06-01T09:27:44;32.50;33.00
674;DHT22;319;48.764;9.174;2023-06-01T09:30:12;31.90;34.00
674;DHT22;319;48.764;9.174;2023-06-01T09:32:39;31.20;35.20
674;DHT22;319;48.764;9.174;2023-06-01T09:35:07;30.60;35.90
674;DHT22;319;48.764;9.174;2023-06-01T09:37:36;29.70;37.10
674;DHT22;319;48.764;9.174;2023-06-01T09:40:16;29.20;38.30
674;DHT22;319;48.764;9.174;2023-06-01T09:42:43;29.00;38.90
674;DHT22;319;48.764;9.174;2023-06-01T09:45:18;28.80;39.70
674;DHT22;319;48.764;9.174;2023-06-01T09:47:46;28.60;40.20
674;DHT22;319;48.764;9.174;2023-06-01T09:50:31;28.20;40.50
674;DHT22;319;48.764;9.174;2023-06-01T09:52:58;28.00;41.50
674;DHT22;319;48.764;9.174;2023-06-01T09:55:26;27.80;42.70
674;DHT22;319;48.764;9.174;2023-06-01T09:58:17;27.60;42.10
674;DHT22;319;48.764;9.174;2023-06-01T10:00:46;27.40;42.60
674;DHT22;319;48.764;9.174;2023-06-01T10:03:14;27.50;42.70
674;DHT22;319;48.764;9.174;2023-06-01T10:05:42;27.60;42.60
674;DHT22;319;48.764;9.174;2023-06-01T10:08:11;27.50;42.90
674;DHT22;319;48.764;9.174;2023-06-01T10:10:42;27.40;43.20
674;DHT22;319;48.764;9.174;2023-06-01T10:13:10;27.50;43.10
674;DHT22;319;48.764;9.174;2023-06-01T10:15:37;27.40;43.20
674;DHT22;319;48.764;9.174;2023-06-01T10:18:05;27.40;43.30
674;DHT22;319;48.764;9.174;2023-06-01T10:20:32;27.50;43.70
674;DHT22;319;48.764;9.174;2023-06-01T10:23:00;27.40;43.60
674;DHT22;319;48.764;9.174;2023-06-01T10:25:31;27.60;43.90
674;DHT22;319;48.764;9.174;2023-06-01T10:28:05;27.60;43.10
674;DHT22;319;48.764;9.174;2023-06-01T10:30:33;27.60;43.10
674;DHT22;319;48.764;9.174;2023-06-01T10:33:00;27.60;42.70
674;DHT22;319;48.764;9.174;2023-06-01T10:36:00;27.60;42.70
674;DHT22;319;48.764;9.174;2023-06-01T10:38:28;27.60;42.50
674;DHT22;319;48.764;9.174;2023-06-01T10:41:28;27.60;40.80
674;DHT22;319;48.764;9.174;2023-06-01T10:43:57;27.60;40.90
674;DHT22;319;48.764;9.174;2023-06-01T10:46:38;27.70;40.30
674;DHT22;319;48.764;9.174;2023-06-01T10:49:06;27.80;41.10
674;DHT22;319;48.764;9.174;2023-06-01T10:51:33;27.90;41.40
674;DHT22;319;48.764;9.174;2023-06-01T10:54:25;27.90;41.30
674;DHT22;319;48.764;9.174;2023-06-01T11:00:10;27.70;41.80
674;DHT22;319;48.764;9.174;2023-06-01T11:02:47;27.70;41.80
674;DHT22;319;48.764;9.174;2023-06-01T11:05:34;27.90;41.30
674;DHT22;319;48.764;9.174;2023-06-01T11:08:02;28.00;41.20
674;DHT22;319;48.764;9.174;2023-06-01T11:10:56;28.00;41.10
674;DHT22;319;48.764;9.174;2023-06-01T11:13:25;28.10;41.20
674;DHT22;319;48.764;9.174;2023-06-01T11:16:31;28.20;40.80
674;DHT22;319;48.764;9.174;2023-06-01T11:19:02;28.10;41.20
674;DHT22;319;48.764;9.174;2023-06-01T11:21:31;28.10;42.20
674;DHT22;319;48.764;9.174;2023-06-01T11:24:03;28.10;41.40
674;DHT22;319;48.764;9.174;2023-06-01T11:26:32;28.10;41.50
674;DHT22;319;48.764;9.174;2023-06-01T11:29:04;28.30;41.10
674;DHT22;319;48.764;9.174;2023-06-01T11:31:39;28.40;40.90
674;DHT22;319;48.764;9.174;2023-06-01T11:34:07;28.40;40.80
674;DHT22;319;48.764;9.174;2023-06-01T11:36:45;28.30;40.80
674;DHT22;319;48.764;9.174;2023-06-01T11:39:22;28.30;40.60
674;DHT22;319;48.764;9.174;2023-06-01T11:42:02;28.50;40.40
674;DHT22;319;48.764;9.174;2023-06-01T11:44:30;28.50;40.10
674;DHT22;319;48.764;9.174;2023-06-01T11:47:00;28.50;39.40
674;DHT22;319;48.764;9.174;2023-06-01T11:49:27;28.50;39.80
674;DHT22;319;48.764;9.174;2023-06-01T11:51:55;28.40;39.40
674;DHT22;319;48.764;9.174;2023-06-01T11:54:24;28.30;39.50
674;DHT22;319;48.764;9.174;2023-06-01T11:56:52;28.30;39.30
674;DHT22;319;48.764;9.174;2023-06-01T11:59:19;28.40;39.10
674;DHT22;319;48.764;9.174;2023-06-01T12:01:48;28.50;39.40
674;DHT22;319;48.764;9.174;2023-06-01T12:04:19;28.60;39.50
674;DHT22;319;48.764;9.174;2023-06-01T12:06:46;28.40;39.80
674;DHT22;319;48.764;9.174;2023-06-01T12:09:15;28.50;40.40
674;DHT22;319;48.764;9.174;2023-06-01T12:11:43;28.50;39.90
674;DHT22;319;48.764;9.174;2023-06-01T12:14:11;28.40;39.90
674;DHT22;319;48.764;9.174;2023-06-01T12:16:57;28.40;38.70
674;DHT22;319;48.764;9.174;2023-06-01T12:19:27;28.40;39.70
674;DHT22;319;48.764;9.174;2023-06-01T12:21:56;28.40;39.00
674;DHT22;319;48.764;9.174;2023-06-01T12:24:28;28.50;38.30
674;DHT22;319;48.764;9.174;2023-06-01T12:26:55;28.60;38.10
674;DHT22;319;48.764;9.174;2023-06-01T12:29:38;28.80;38.00
674;DHT22;319;48.764;9.174;2023-06-01T12:32:07;28.90;37.40
674;DHT22;319;48.764;9.174;2023-06-01T12:34:37;28.90;36.20
674;DHT22;319;48.764;9.174;2023-06-01T12:37:14;28.70;36.90
674;DHT22;319;48.764;9.174;2023-06-01T12:39:41;28.80;36.30
674;DHT22;319;48.764;9.174;2023-06-01T12:42:09;28.90;36.50
674;DHT22;319;48.764;9.174;2023-06-01T12:44:37;29.10;37.00
674;DHT22;319;48.764;9.174;2023-06-01T12:47:07;29.10;37.50
674;DHT22;319;48.764;9.174;2023-06-01T12:49:35;29.00;37.30
674;DHT22;319;48.764;9.174;2023-06-01T12:52:04;29.00;38.30
674;DHT22;319;48.764;9.174;2023-06-01T12:54:31;29.10;38.10
674;DHT22;319;48.764;9.174;2023-06-01T12:56:58;29.30;37.40
674;DHT22;319;48.764;9.174;2023-06-01T12:59:25;29.40;37.00
674;DHT22;319;48.764;9.174;2023-06-01T13:01:52;29.50;37.10
674;DHT22;319;48.764;9.174;2023-06-01T13:04:19;29.40;36.90
674;DHT22;319;48.764;9.174;2023-06-01T13:06:48;29.40;37.10
674;DHT22;319;48.764;9.174;2023-06-01T13:09:16;29.40;36.50
674;DHT22;319;48.764;9.174;2023-06-01T13:11:43;29.40;36.00
674;DHT22;319;48.764;9.174;2023-06-01T13:14:10;29.50;36.30
674;DHT22;319;48.764;9.174;2023-06-01T13:16:37;29.30;37.30
674;DHT22;319;48.764;9.174;2023-06-01T13:19:05;29.10;37.50
674;DHT22;319;48.764;9.174;2023-06-01T13:21:32;29.00;38.00
674;DHT22;319;48.764;9.174;2023-06-01T13:24:01;28.90;39.40
674;DHT22;319;48.764;9.174;2023-06-01T13:26:29;28.80;40.10
674;DHT22;319;48.764;9.174;2023-06-01T13:28:56;28.70;40.20
674;DHT22;319;48.764;9.174;2023-06-01T13:31:23;28.60;40.30
674;DHT22;319;48.764;9.174;2023-06-01T13:33:50;28.60;40.20
674;DHT22;319;48.764;9.174;2023-06-01T13:36:17;28.40;40.90
674;DHT22;319;48.764;9.174;2023-06-01T13:38:44;28.30;41.60
674;DHT22;319;48.764;9.174;2023-06-01T13:41:12;28.50;41.50
674;DHT22;319;48.764;9.174;2023-06-01T13:43:39;28.60;41.10
674;DHT22;319;48.764;9.174;2023-06-01T13:46:06;28.70;40.40
674;DHT22;319;48.764;9.174;2023-06-01T13:48:35;28.80;40.10
674;DHT22;319;48.764;9.174;2023-06-01T13:51:02;28.70;39.80
674;DHT22;319;48.764;9.174;2023-06-01T13:53:30;28.60;39.20
674;DHT22;319;48.764;9.174;2023-06-01T13:55:57;28.50;39.10
674;DHT22;319;48.764;9.174;2023-06-01T13:58:26;28.50;39.30
674;DHT22;319;48.764;9.174;2023-06-01T14:00:53;28.60;39.30
674;DHT22;319;48.764;9.174;2023-06-01T14:03:20;28.60;40.10
674;DHT22;319;48.764;9.174;2023-06-01T14:05:46;28.70;39.90
674;DHT22;319;48.764;9.174;2023-06-01T14:08:13;28.70;39.90
674;DHT22;319;48.764;9.174;2023-06-01T14:10:40;28.80;40.00
674;DHT22;319;48.764;9.174;2023-06-01T14:13:07;28.70;39.80
674;DHT22;319;48.764;9.174;2023-06-01T14:15:35;28.80;39.80
674;DHT22;319;48.764;9.174;2023-06-01T14:18:02;28.80;39.20
674;DHT22;319;48.764;9.174;2023-06-01T14:20:30;28.70;39.10
674;DHT22;319;48.764;9.174;2023-06-01T14:22:58;28.70;39.00
674;DHT22;319;48.764;9.174;2023-06-01T14:25:26;28.90;38.70
674;DHT22;319;48.764;9.174;2023-06-01T14:27:53;28.70;38.00
674;DHT22;319;48.764;9.174;2023-06-01T14:30:20;28.70;38.00
674;DHT22;319;48.764;9.174;2023-06-01T14:32:48;28.60;38.30
674;DHT22;319;48.764;9.174;2023-06-01T14:35:15;28.40;37.90
674;DHT22;319;48.764;9.174;2023-06-01T14:37:44;28.40;38.30
674;DHT22;319;48.764;9.174;2023-06-01T14:40:11;28.50;38.20
674;DHT22;319;48.764;9.174;2023-06-01T14:42:38;28.50;38.00
674;DHT22;319;48.764;9.174;2023-06-01T14:45:06;28.50;38.10
674;DHT22;319;48.764;9.174;2023-06-01T14:47:34;28.60;37.70
674;DHT22;319;48.764;9.174;2023-06-01T14:50:02;28.60;37.30
674;DHT22;319;48.764;9.174;2023-06-01T14:52:29;28.40;37.30
674;DHT22;319;48.764;9.174;2023-06-01T14:54:56;28.50;37.40
674;DHT22;319;48.764;9.174;2023-06-01T14:57:23;28.50;37.30
674;DHT22;319;48.764;9.174;2023-06-01T14:59:50;28.70;37.70
674;DHT22;319;48.764;9.174;2023-06-01T15:02:17;28.90;38.10
674;DHT22;319;48.764;9.174;2023-06-01T15:04:44;28.90;38.20
674;DHT22;319;48.764;9.174;2023-06-01T15:07:12;29.00;37.80
674;DHT22;319;48.764;9.174;2023-06-01T15:09:39;28.90;37.70
674;DHT22;319;48.764;9.174;2023-06-01T15:12:07;28.90;38.00
674;DHT22;319;48.764;9.174;2023-06-01T15:14:33;28.90;38.10
674;DHT22;319;48.764;9.174;2023-06-01T15:17:00;28.90;37.90
674;DHT22;319;48.764;9.174;2023-06-01T15:19:27;28.90;38.00
674;DHT22;319;48.764;9.174;2023-06-01T15:21:54;29.00;37.90
674;DHT22;319;48.764;9.174;2023-06-01T15:24:22;28.90;37.60
674;DHT22;319;48.764;9.174;2023-06-01T15:26:50;28.90;37.70
674;DHT22;319;48.764;9.174;2023-06-01T15:29:17;29.00;37.60
674;DHT22;319;48.764;9.174;2023-06-01T15:31:44;29.00;37.90
674;DHT22;319;48.764;9.174;2023-06-01T15:34:11;29.00;38.20
674;DHT22;319;48.764;9.174;2023-06-01T15:36:38;29.10;38.30
674;DHT22;319;48.764;9.174;2023-06-01T15:39:05;29.10;37.60
674;DHT22;319;48.764;9.174;2023-06-01T15:41:33;29.00;37.70
674;DHT22;319;48.764;9.174;2023-06-01T15:44:00;29.00;37.90
674;DHT22;319;48.764;9.174;2023-06-01T15:46:28;28.90;37.50
674;DHT22;319;48.764;9.174;2023-06-01T15:48:54;28.90;37.30
674;DHT22;319;48.764;9.174;2023-06-01T15:51:21;28.60;37.70
674;DHT22;319;48.764;9.174;2023-06-01T15:53:49;28.60;37.80
674;DHT22;319;48.764;9.174;2023-06-01T15:56:17;28.50;37.70
674;DHT22;319;48.764;9.174;2023-06-01T15:58:45;28.30;37.60
674;DHT22;319;48.764;9.174;2023-06-01T16:01:18;28.10;37.80
674;DHT22;319;48.764;9.174;2023-06-01T16:03:45;28.10;38.50
674;DHT22;319;48.764;9.174;2023-06-01T16:06:12;28.10;38.30
674;DHT22;319;48.764;9.174;2023-06-01T16:08:38;28.10;38.40
674;DHT22;319;48.764;9.174;2023-06-01T16:11:05;28.30;38.40
674;DHT22;319;48.764;9.174;2023-06-01T16:13:32;28.40;38.30
674;DHT22;319;48.764;9.174;2023-06-01T16:16:00;28.50;37.90
674;DHT22;319;48.764;9.174;2023-06-01T16:18:27;28.50;37.50
674;DHT22;319;48.764;9.174;2023-06-01T16:20:54;28.40;37.60
674;DHT22;319;48.764;9.174;2023-06-01T16:23:21;28.50;37.60
674;DHT22;319;48.764;9.174;2023-06-01T16:25:48;28.40;37.40
674;DHT22;319;48.764;9.174;2023-06-01T16:28:15;28.40;37.50
674;DHT22;319;48.764;9.174;2023-06-01T16:30:42;28.30;37.50
674;DHT22;319;48.764;9.174;2023-06-01T16:33:10;28.30;37.70
674;DHT22;319;48.764;9.174;2023-06-01T16:35:37;28.40;37.50
674;DHT22;319;48.764;9.174;2023-06-01T16:38:04;28.30;37.60
674;DHT22;319;48.764;9.174;2023-06-01T16:40:31;28.20;37.00
674;DHT22;319;48.764;9.174;2023-06-01T16:42:58;28.20;37.20
674;DHT22;319;48.764;9.174;2023-06-01T16:45:25;27.90;37.00
674;DHT22;319;48.764;9.174;2023-06-01T16:47:52;27.90;37.40
674;DHT22;319;48.764;9.174;2023-06-01T16:50:20;27.80;37.70